메인 페이지
METAR-TAF:

METAR-TAF

공항 :

포트모르즈비, 파푸아뉴기니

잭슨 국제공항

위도: 09-26S, 경도: 147-13E, 고도: 38m

현재 날씨관측

예보는 30분 전, 07:00시(UTC)에 발표되었습니다.
서남서10kt
온도 32°C
습도 67%
기압 1004 hPa
시정 10km 이상
고도 2500ft 상공 구름 보통

METAR: AYPY 250700Z 24010KT 9999 SCT025 32/25 Q1004

시각: 17:30 (07:30 UTC)

예보

예보는 3 시간 48분 전, 03:42시(UTC)에 발표되었습니다.
예보 대상 시간: 25일 06시부터 26일 06시까지 (UTC)
서북서8kt
시정 10km 이상
고도 1800ft 상공 구름 보통
고도 3000ft 상공 구름 보통
고도 12000ft 상공 구름 많음
약한소나기
25일 1000시부터 (UTC)
여러 방향의 바람 3kt
시정 10km 이상
고도 4000ft 상공 구름 많음
25일 1200시부터 (UTC)
kt
시정: 4000m
고도 3000ft 상공 구름 보통
고도 800ft 상공 구름 많음
고도 1800ft 상공 구름 조금, 적란운.
뇌우, 비

TAF: AYPY 250342Z 2506/2606 29008KT 9999 -SHRA SCT018 SCT030 BKN120 FM251000 VRB03KT 9999 -R ADZ Z BKN040 FM251200 00000KT 9999 SCT030 INTER 2506/2510 4000 TSRA BKN008 FEW018CB

4,000개 이상의 공항 관측 자료 및 예보 (METAR 및 TAF 보고).

지도상에서 검색 가능한 기상관측소가 노란 점과 빨간 점으로 표시되어 있습니다.

기상관측소 명을 보려면 표시 위로 마우스를 이동하세요.

날씨 관측과 예보를 보려면 클릭하세요.

지도 변경 : 확대하려면 엑스 표시가 있는 녹색 버튼, 축소하려면 빼기 표시가 있는 녹색 버튼, 다음 페이지의 지도를 보려면 녹색 화살표를 클릭하세요.


METAR-TAF: